createdAt,value
2023-05-05T00:00:15.891Z,101445.34
2023-05-05T00:02:42.647Z,101441.53
2023-05-05T00:05:09.520Z,101439.53
2023-05-05T00:07:36.049Z,101437.84
2023-05-05T00:10:02.717Z,101435.56
2023-05-05T00:12:29.259Z,101437.91
2023-05-05T00:14:57.079Z,101441.59
2023-05-05T00:17:23.570Z,101448.31
2023-05-05T00:19:49.984Z,101442.38
2023-05-05T00:22:16.457Z,101437.09
2023-05-05T00:24:42.856Z,101437.94
2023-05-05T00:27:10.372Z,101438.06
2023-05-05T00:29:37.810Z,101435.72
2023-05-05T00:32:04.391Z,101425.00
2023-05-05T00:34:30.857Z,101426.63
2023-05-05T00:36:57.354Z,101421.94
2023-05-05T00:39:24.230Z,101418.19
2023-05-05T00:41:50.736Z,101428.59
2023-05-05T00:44:17.132Z,101435.03
2023-05-05T00:46:44.031Z,101443.56
2023-05-05T00:49:12.122Z,101452.81
2023-05-05T00:51:38.612Z,101455.78
2023-05-05T00:54:05.709Z,101458.50
2023-05-05T00:56:32.351Z,101456.75
2023-05-05T00:58:59.382Z,101456.03
2023-05-05T01:01:25.821Z,101449.88
2023-05-05T01:03:52.522Z,101437.38
2023-05-05T01:06:31.719Z,101438.88
2023-05-05T01:09:19.801Z,101434.66
2023-05-05T01:11:56.526Z,101441.84
2023-05-05T01:14:31.925Z,101435.16
2023-05-05T01:17:08.569Z,101440.84
2023-05-05T01:19:58.763Z,101440.59
2023-05-05T01:22:34.882Z,101442.47
2023-05-05T01:25:35.074Z,101448.13
2023-05-05T01:28:24.103Z,101445.00
2023-05-05T01:31:08.864Z,101447.59
2023-05-05T01:33:43.883Z,101455.63
2023-05-05T01:36:22.455Z,101465.25
2023-05-05T01:38:55.739Z,101464.75
2023-05-05T01:41:28.343Z,101469.56
2023-05-05T01:43:57.043Z,101465.72
2023-05-05T01:46:24.558Z,101453.88
2023-05-05T01:48:53.685Z,101459.94
2023-05-05T01:51:23.160Z,101462.25
2023-05-05T01:53:56.604Z,101468.66
2023-05-05T01:56:25.085Z,101473.59
2023-05-05T01:58:52.796Z,101481.97
2023-05-05T02:01:24.821Z,101497.91
2023-05-05T02:03:56.882Z,101500.38
2023-05-05T02:06:24.649Z,101494.56
2023-05-05T02:08:52.967Z,101485.25
2023-05-05T02:11:21.696Z,101470.69
2023-05-05T02:13:49.981Z,101441.63
2023-05-05T02:16:18.571Z,101441.63
2023-05-05T02:18:48.602Z,101431.88
2023-05-05T02:21:17.881Z,101434.13
2023-05-05T02:23:51.604Z,101437.38
2023-05-05T02:26:21.817Z,101463.59
2023-05-05T02:28:58.382Z,101461.50
2023-05-05T02:31:27.696Z,101457.69
2023-05-05T02:33:57.284Z,101451.66
2023-05-05T02:36:29.336Z,101453.03
2023-05-05T02:39:03.493Z,101451.81
2023-05-05T02:41:38.237Z,101456.88
2023-05-05T02:44:12.484Z,101454.03
2023-05-05T02:46:39.383Z,101450.34
2023-05-05T02:49:06.213Z,101455.53
2023-05-05T02:51:32.711Z,101456.25
2023-05-05T02:54:04.100Z,101456.72
2023-05-05T02:56:42.908Z,101451.44
2023-05-05T02:59:33.472Z,101454.25
2023-05-05T03:02:08.150Z,101449.69
2023-05-05T03:04:40.360Z,101452.09
2023-05-05T03:07:12.244Z,101457.41
2023-05-05T03:09:45.469Z,101460.34
2023-05-05T03:12:20.209Z,101470.94
2023-05-05T03:15:00.717Z,101471.38
2023-05-05T03:17:31.632Z,101473.59
2023-05-05T03:20:01.621Z,101478.63
2023-05-05T03:22:31.319Z,101474.44
2023-05-05T03:24:57.838Z,101473.81
2023-05-05T03:27:24.582Z,101488.69
2023-05-05T03:29:52.570Z,101494.81
2023-05-05T03:32:19.883Z,101489.78
2023-05-05T03:34:46.455Z,101502.41
2023-05-05T03:37:12.962Z,101492.63
2023-05-05T03:39:41.384Z,101492.63
2023-05-05T03:42:09.350Z,101475.59
2023-05-05T03:44:36.050Z,101478.31
2023-05-05T03:47:02.561Z,101474.00
2023-05-05T03:49:31.660Z,101487.78
2023-05-05T03:51:58.401Z,101492.47
2023-05-05T03:54:24.939Z,101495.41
2023-05-05T03:56:51.836Z,101501.03
2023-05-05T03:59:18.344Z,101521.84
2023-05-05T04:01:46.536Z,101522.59
2023-05-05T04:04:13.108Z,101512.06
2023-05-05T04:06:39.589Z,101518.31
2023-05-05T04:09:07.097Z,101521.69
2023-05-05T04:11:33.566Z,101539.81
2023-05-05T04:14:00.675Z,101546.06
2023-05-05T04:16:28.991Z,101537.19
2023-05-05T04:18:56.195Z,101552.47
2023-05-05T04:21:22.739Z,101552.59
2023-05-05T04:23:52.801Z,101549.00
2023-05-05T04:26:20.936Z,101557.25
2023-05-05T04:28:48.512Z,101553.78
2023-05-05T04:31:16.182Z,101546.41
2023-05-05T04:33:44.146Z,101562.31
2023-05-05T04:36:11.088Z,101565.91
2023-05-05T04:38:39.974Z,101570.47
2023-05-05T04:41:06.919Z,101579.34
2023-05-05T04:43:34.795Z,101571.00
2023-05-05T04:46:01.707Z,101576.44
2023-05-05T04:48:31.323Z,101570.06
2023-05-05T04:50:57.751Z,101573.28
2023-05-05T04:53:24.274Z,101572.81
2023-05-05T04:55:50.751Z,101576.19
2023-05-05T04:58:17.681Z,101577.69
2023-05-05T05:00:45.109Z,101586.56
2023-05-05T05:03:11.985Z,101586.44
2023-05-05T05:05:38.561Z,101589.91
2023-05-05T05:08:05.482Z,101586.13
2023-05-05T05:10:32.157Z,101602.38
2023-05-05T05:12:58.648Z,101602.03
2023-05-05T05:15:26.703Z,101604.28
2023-05-05T05:17:53.503Z,101597.53
2023-05-05T05:20:20.925Z,101599.03
2023-05-05T05:22:47.422Z,101598.69
2023-05-05T05:25:19.967Z,101603.53
2023-05-05T05:28:02.012Z,101598.72
2023-05-05T05:30:33.312Z,101601.00
2023-05-05T05:33:00.373Z,101612.59
2023-05-05T05:35:27.799Z,101615.84
2023-05-05T05:37:54.480Z,101600.91
2023-05-05T05:40:21.085Z,101605.00
2023-05-05T05:42:47.664Z,101607.13
2023-05-05T05:45:14.225Z,101615.69
2023-05-05T05:47:41.047Z,101626.56
2023-05-05T05:50:08.709Z,101630.03
2023-05-05T05:52:36.204Z,101624.78
2023-05-05T05:55:05.812Z,101632.09
2023-05-05T05:57:32.410Z,101623.72
2023-05-05T06:00:05.313Z,101627.44
2023-05-05T06:02:39.363Z,101621.53
2023-05-05T06:05:10.482Z,101614.59
2023-05-05T06:07:37.019Z,101620.38
2023-05-05T06:10:18.399Z,101615.25
2023-05-05T06:12:50.500Z,101602.28
2023-05-05T06:15:17.542Z,101597.91
2023-05-05T06:17:44.146Z,101588.19
2023-05-05T06:20:11.317Z,101571.25
2023-05-05T06:22:37.795Z,101580.91
2023-05-05T06:25:04.657Z,101584.50
2023-05-05T06:27:31.240Z,101588.06
2023-05-05T06:29:57.650Z,101591.25
2023-05-05T06:32:24.183Z,101589.78
2023-05-05T06:34:50.740Z,101595.44
2023-05-05T06:37:17.213Z,101596.25
2023-05-05T06:39:43.772Z,101594.66
2023-05-05T06:42:10.214Z,101605.16
2023-05-05T06:44:36.688Z,101598.75
2023-05-05T06:47:03.960Z,101599.50
2023-05-05T06:49:30.436Z,101606.59
2023-05-05T06:51:56.982Z,101608.28
2023-05-05T06:54:23.601Z,101609.41
2023-05-05T06:56:50.028Z,101607.91
2023-05-05T06:59:16.545Z,101611.97
2023-05-05T07:01:42.933Z,101616.56
2023-05-05T07:04:09.436Z,101608.38
2023-05-05T07:06:36.256Z,101621.44
2023-05-05T07:09:04.300Z,101623.22
2023-05-05T07:11:31.157Z,101627.69
2023-05-05T07:13:57.543Z,101623.72
2023-05-05T07:16:25.273Z,101625.06
2023-05-05T07:18:51.704Z,101631.38
2023-05-05T07:21:18.170Z,101621.41
2023-05-05T07:23:46.178Z,101621.28
2023-05-05T07:26:12.792Z,101632.25
2023-05-05T07:28:39.279Z,101623.56
2023-05-05T07:31:05.907Z,101637.00
2023-05-05T07:33:32.324Z,101640.56
2023-05-05T07:35:58.812Z,101632.97
2023-05-05T07:38:25.702Z,101634.22
2023-05-05T07:40:52.105Z,101637.88
2023-05-05T07:43:18.554Z,101630.47
2023-05-05T07:45:45.095Z,101626.00
2023-05-05T07:48:11.657Z,101625.34
2023-05-05T07:50:38.149Z,101624.53
2023-05-05T07:53:13.631Z,101635.16
2023-05-05T07:55:40.652Z,101637.50
2023-05-05T07:58:07.484Z,101639.22
2023-05-05T08:00:34.057Z,101626.69
2023-05-05T08:03:00.742Z,101627.72
2023-05-05T08:05:27.358Z,101624.19
2023-05-05T08:07:53.878Z,101628.09
2023-05-05T08:10:22.335Z,101627.97
2023-05-05T08:12:49.096Z,101622.38
2023-05-05T08:15:16.008Z,101636.28
2023-05-05T08:17:51.517Z,101637.84
2023-05-05T08:20:19.520Z,101638.41
2023-05-05T08:22:46.796Z,101640.28
2023-05-05T08:25:13.837Z,101630.06
2023-05-05T08:27:41.525Z,101632.63
2023-05-05T08:30:10.786Z,101638.41
2023-05-05T08:32:38.602Z,101625.56
2023-05-05T08:35:06.571Z,101633.75
2023-05-05T08:37:33.491Z,101636.50
2023-05-05T08:40:01.471Z,101644.66
2023-05-05T08:42:37.796Z,101654.81
2023-05-05T08:45:07.580Z,101664.50
2023-05-05T08:47:38.080Z,101662.75
2023-05-05T08:50:06.811Z,101662.28
2023-05-05T08:52:41.857Z,101658.16
2023-05-05T08:55:24.739Z,101657.06
2023-05-05T08:57:56.741Z,101662.63
2023-05-05T09:00:26.886Z,101660.47
2023-05-05T09:02:56.735Z,101669.16
2023-05-05T09:05:23.471Z,101662.34
2023-05-05T09:07:50.565Z,101660.75
2023-05-05T09:10:18.041Z,101668.59
2023-05-05T09:12:44.639Z,101667.25
2023-05-05T09:15:13.643Z,101658.50
2023-05-05T09:17:40.801Z,101660.94
2023-05-05T09:20:12.444Z,101667.50
2023-05-05T09:22:44.146Z,101660.41
2023-05-05T09:25:12.633Z,101659.38
2023-05-05T09:27:42.213Z,101656.13
2023-05-05T09:30:11.141Z,101665.03
2023-05-05T09:32:49.129Z,101663.84
2023-05-05T09:35:16.858Z,101664.88
2023-05-05T09:37:43.980Z,101660.94
2023-05-05T09:40:11.861Z,101654.34
2023-05-05T09:42:41.468Z,101659.19
2023-05-05T09:45:22.919Z,101660.06
2023-05-05T09:47:49.567Z,101650.75
2023-05-05T09:50:20.889Z,101652.78
2023-05-05T09:52:59.003Z,101650.09
2023-05-05T09:55:25.905Z,101649.91
2023-05-05T09:57:52.632Z,101650.97
2023-05-05T10:00:19.670Z,101655.25
2023-05-05T10:02:46.453Z,101665.66
2023-05-05T10:05:18.155Z,101654.50
2023-05-05T10:07:46.804Z,101660.56
2023-05-05T10:10:16.200Z,101656.78
2023-05-05T10:12:43.323Z,101669.72
2023-05-05T10:15:11.625Z,101689.13
2023-05-05T10:18:02.365Z,101703.69
2023-05-05T10:20:33.308Z,101717.72
2023-05-05T10:23:02.797Z,101729.59
2023-05-05T10:25:31.447Z,101714.09
2023-05-05T10:28:01.161Z,101705.34
2023-05-05T10:30:34.279Z,101723.16
2023-05-05T10:33:22.292Z,101712.88
2023-05-05T10:35:53.806Z,101711.81
2023-05-05T10:38:20.679Z,101701.03
2023-05-05T10:40:50.963Z,101701.16
2023-05-05T10:43:17.874Z,101693.44
2023-05-05T10:45:44.867Z,101695.88
2023-05-05T10:48:27.355Z,101701.38
2023-05-05T10:51:01.822Z,101704.03
2023-05-05T10:53:30.896Z,101709.09
2023-05-05T10:56:05.829Z,101712.31
2023-05-05T10:58:55.649Z,101714.31
2023-05-05T11:01:35.642Z,101713.84
2023-05-05T11:04:21.388Z,101735.03
2023-05-05T11:07:13.456Z,101745.22
2023-05-05T11:10:15.595Z,101744.34
2023-05-05T11:12:52.410Z,101737.66
2023-05-05T11:15:31.314Z,101736.94
2023-05-05T11:17:59.430Z,101738.41
2023-05-05T11:20:35.012Z,101732.75
2023-05-05T11:23:05.208Z,101742.53
2023-05-05T11:25:35.066Z,101724.47
2023-05-05T11:28:08.322Z,101719.63
2023-05-05T11:30:36.672Z,101725.69
2023-05-05T11:33:25.714Z,101735.81
2023-05-05T11:36:12.110Z,101738.22
2023-05-05T11:39:00.143Z,101749.06
2023-05-05T11:41:33.044Z,101750.84
2023-05-05T11:44:12.446Z,101754.66
2023-05-05T11:47:07.812Z,101748.94
2023-05-05T11:49:38.908Z,101749.97
2023-05-05T11:52:08.205Z,101755.53
2023-05-05T11:54:36.224Z,101754.28
2023-05-05T11:57:05.434Z,101754.16
2023-05-05T11:59:32.606Z,101746.00
2023-05-05T12:01:59.549Z,101757.13
2023-05-05T12:04:26.592Z,101749.06
2023-05-05T12:06:55.252Z,101747.84
2023-05-05T12:09:23.079Z,101742.53
2023-05-05T12:11:56.603Z,101743.41
2023-05-05T12:14:25.432Z,101739.59
2023-05-05T12:16:58.110Z,101744.03
2023-05-05T12:19:29.738Z,101740.78
2023-05-05T12:21:56.988Z,101743.31
2023-05-05T12:24:23.656Z,101737.84
2023-05-05T12:26:50.147Z,101746.88
2023-05-05T12:29:29.434Z,101741.19
2023-05-05T12:31:57.792Z,101736.97
2023-05-05T12:34:24.507Z,101744.16
2023-05-05T12:36:51.164Z,101741.06
2023-05-05T12:39:17.854Z,101741.56
2023-05-05T12:41:45.962Z,101744.75
2023-05-05T12:44:12.545Z,101737.38
2023-05-05T12:46:46.636Z,101740.09
2023-05-05T12:49:13.341Z,101736.72
2023-05-05T12:51:52.936Z,101735.50
2023-05-05T12:54:19.612Z,101734.38
2023-05-05T12:56:47.660Z,101731.78
2023-05-05T12:59:23.374Z,101737.34
2023-05-05T13:01:57.030Z,101729.53
2023-05-05T13:04:25.159Z,101724.81
2023-05-05T13:07:11.631Z,101732.63
2023-05-05T13:09:38.601Z,101720.31
2023-05-05T13:12:05.784Z,101718.69
2023-05-05T13:14:32.405Z,101722.31
2023-05-05T13:16:58.825Z,101723.56
2023-05-05T13:19:25.653Z,101737.94
2023-05-05T13:21:52.730Z,101729.94
2023-05-05T13:24:31.067Z,101733.03
2023-05-05T13:27:00.461Z,101732.06
2023-05-05T13:29:31.140Z,101739.06
2023-05-05T13:31:58.019Z,101743.88
2023-05-05T13:34:25.684Z,101744.78
2023-05-05T13:36:52.297Z,101746.63
2023-05-05T13:39:20.363Z,101757.88
2023-05-05T13:41:46.865Z,101760.34
2023-05-05T13:44:13.979Z,101757.25
2023-05-05T13:46:42.151Z,101763.31
2023-05-05T13:49:08.656Z,101765.88
2023-05-05T13:51:35.263Z,101767.47
2023-05-05T13:54:01.965Z,101775.53
2023-05-05T13:56:28.506Z,101758.59
2023-05-05T13:58:55.000Z,101768.72
2023-05-05T14:01:21.496Z,101757.97
2023-05-05T14:03:48.076Z,101753.50
2023-05-05T14:06:14.631Z,101761.06
2023-05-05T14:08:41.484Z,101754.50
2023-05-05T14:11:07.979Z,101747.97
2023-05-05T14:13:34.598Z,101751.06
2023-05-05T14:16:02.640Z,101743.41
2023-05-05T14:18:29.634Z,101744.63
2023-05-05T14:20:56.180Z,101733.50
2023-05-05T14:23:22.635Z,101725.84
2023-05-05T14:25:49.143Z,101712.75
2023-05-05T14:28:15.995Z,101716.22
2023-05-05T14:30:42.659Z,101708.19
2023-05-05T14:33:09.146Z,101714.47
2023-05-05T14:35:35.817Z,101707.81
2023-05-05T14:38:02.355Z,101694.19
2023-05-05T14:40:30.182Z,101695.78
2023-05-05T14:42:57.663Z,101687.63
2023-05-05T14:45:24.142Z,101678.84
2023-05-05T14:47:50.870Z,101651.78
2023-05-05T14:50:17.410Z,101659.44
2023-05-05T14:52:44.393Z,101664.75
2023-05-05T14:55:11.727Z,101678.59
2023-05-05T14:57:38.744Z,101691.50
2023-05-05T15:00:07.085Z,101699.75
2023-05-05T15:02:33.761Z,101707.44
2023-05-05T15:05:01.976Z,101705.28
2023-05-05T15:07:29.052Z,101699.56
2023-05-05T15:09:58.128Z,101701.50
2023-05-05T15:12:25.919Z,101700.69
2023-05-05T15:14:52.384Z,101701.38
2023-05-05T15:17:18.855Z,101701.19
2023-05-05T15:19:45.300Z,101700.38
2023-05-05T15:22:11.769Z,101699.66
2023-05-05T15:24:38.349Z,101691.81
2023-05-05T15:27:05.079Z,101692.47
2023-05-05T15:29:31.629Z,101693.19
2023-05-05T15:31:58.183Z,101685.97
2023-05-05T15:34:24.971Z,101688.41
2023-05-05T15:36:51.508Z,101683.69
2023-05-05T15:39:17.974Z,101670.34
2023-05-05T15:41:44.427Z,101674.56
2023-05-05T15:44:12.553Z,101674.75
2023-05-05T15:46:41.660Z,101671.69
2023-05-05T15:49:08.412Z,101673.97
2023-05-05T15:51:35.035Z,101673.19
2023-05-05T15:54:01.983Z,101668.16
2023-05-05T15:56:29.295Z,101667.69
2023-05-05T15:58:56.639Z,101671.78
2023-05-05T16:01:23.243Z,101667.69
2023-05-05T16:03:49.762Z,101664.84
2023-05-05T16:06:16.294Z,101670.88
2023-05-05T16:08:47.635Z,101661.63
2023-05-05T16:11:14.357Z,101665.41
2023-05-05T16:13:42.406Z,101666.97
2023-05-05T16:16:08.905Z,101670.13
2023-05-05T16:18:35.456Z,101665.50
2023-05-05T16:21:02.554Z,101663.63
2023-05-05T16:23:29.048Z,101665.19
2023-05-05T16:25:55.556Z,101665.31
2023-05-05T16:28:22.074Z,101651.88
2023-05-05T16:30:48.616Z,101658.44
2023-05-05T16:33:17.797Z,101656.44
2023-05-05T16:35:45.719Z,101649.97
2023-05-05T16:38:13.260Z,101649.97
2023-05-05T16:40:40.095Z,101654.13
2023-05-05T16:43:06.567Z,101655.53
2023-05-05T16:45:33.082Z,101647.34
2023-05-05T16:48:00.267Z,101653.69
2023-05-05T16:50:26.749Z,101655.81
2023-05-05T16:52:54.533Z,101654.00
2023-05-05T16:55:20.951Z,101655.94
2023-05-05T16:57:47.904Z,101653.19
2023-05-05T17:00:15.443Z,101654.09
2023-05-05T17:02:41.889Z,101657.94
2023-05-05T17:05:09.091Z,101654.72
2023-05-05T17:07:36.014Z,101664.44
2023-05-05T17:10:03.851Z,101661.81
2023-05-05T17:12:30.351Z,101660.72
2023-05-05T17:14:56.794Z,101660.97
2023-05-05T17:17:23.227Z,101658.28
2023-05-05T17:19:50.002Z,101663.41
2023-05-05T17:22:16.451Z,101661.69
2023-05-05T17:24:43.072Z,101657.34
2023-05-05T17:27:09.685Z,101669.31
2023-05-05T17:29:40.703Z,101668.59
2023-05-05T17:32:08.217Z,101669.91
2023-05-05T17:34:34.858Z,101669.91
2023-05-05T17:37:01.892Z,101662.41
2023-05-05T17:39:28.591Z,101660.94
2023-05-05T17:41:55.037Z,101662.03
2023-05-05T17:44:21.647Z,101657.50
2023-05-05T17:46:48.155Z,101659.38
2023-05-05T17:49:14.617Z,101664.75
2023-05-05T17:51:41.159Z,101664.75
2023-05-05T17:54:07.554Z,101664.28
2023-05-05T17:56:35.892Z,101672.78
2023-05-05T17:59:02.389Z,101680.56
2023-05-05T18:01:28.875Z,101673.91
2023-05-05T18:03:55.691Z,101679.72
2023-05-05T18:06:22.144Z,101676.63
2023-05-05T18:08:49.260Z,101677.72
2023-05-05T18:11:15.752Z,101688.25
2023-05-05T18:13:43.115Z,101683.69
2023-05-05T18:16:09.631Z,101687.50
2023-05-05T18:18:36.278Z,101689.72
2023-05-05T18:21:02.848Z,101689.97
2023-05-05T18:23:29.345Z,101682.81
2023-05-05T18:25:56.821Z,101678.09
2023-05-05T18:28:23.266Z,101675.63
2023-05-05T18:30:49.738Z,101682.41
2023-05-05T18:33:16.200Z,101679.31
2023-05-05T18:35:42.969Z,101686.94
2023-05-05T18:38:09.459Z,101691.00
2023-05-05T18:40:36.866Z,101691.50
2023-05-05T18:43:03.559Z,101687.38
2023-05-05T18:45:30.087Z,101692.75
2023-05-05T18:47:56.685Z,101701.84
2023-05-05T18:50:24.521Z,101694.41
2023-05-05T18:52:52.638Z,101704.13
2023-05-05T18:55:19.203Z,101692.88
2023-05-05T18:57:45.786Z,101693.41
2023-05-05T19:00:12.590Z,101693.91
2023-05-05T19:02:39.116Z,101691.63
2023-05-05T19:05:06.415Z,101696.63
2023-05-05T19:07:35.848Z,101701.00
2023-05-05T19:10:04.650Z,101701.59
2023-05-05T19:12:31.301Z,101704.09
2023-05-05T19:14:57.816Z,101704.78
2023-05-05T19:17:24.443Z,101704.59
2023-05-05T19:19:51.060Z,101711.41
2023-05-05T19:22:17.663Z,101722.56
2023-05-05T19:24:44.150Z,101717.38
2023-05-05T19:27:15.435Z,101720.59
2023-05-05T19:29:43.143Z,101728.31
2023-05-05T19:32:09.883Z,101725.16
2023-05-05T19:34:36.560Z,101730.22
2023-05-05T19:37:03.326Z,101740.53
2023-05-05T19:39:29.834Z,101734.38
2023-05-05T19:41:56.244Z,101737.38
2023-05-05T19:44:22.838Z,101740.41
2023-05-05T19:46:50.189Z,101733.47
2023-05-05T19:49:16.947Z,101737.38
2023-05-05T19:51:43.743Z,101734.00
2023-05-05T19:54:10.476Z,101735.19
2023-05-05T19:56:37.081Z,101727.38
2023-05-05T19:59:06.065Z,101734.94
2023-05-05T20:01:33.889Z,101744.16
2023-05-05T20:04:00.916Z,101739.16
2023-05-05T20:06:27.611Z,101743.88
2023-05-05T20:08:55.302Z,101742.38
2023-05-05T20:11:22.223Z,101735.44
2023-05-05T20:13:50.757Z,101747.53
2023-05-05T20:16:18.481Z,101741.56
2023-05-05T20:18:45.182Z,101738.28
2023-05-05T20:21:11.809Z,101739.59
2023-05-05T20:23:38.336Z,101737.09
2023-05-05T20:26:05.411Z,101740.84
2023-05-05T20:28:32.203Z,101753.59
2023-05-05T20:31:00.462Z,101747.72
2023-05-05T20:33:28.126Z,101755.06
2023-05-05T20:35:54.867Z,101752.47
2023-05-05T20:38:21.271Z,101757.78
2023-05-05T20:40:47.860Z,101758.66
2023-05-05T20:43:14.375Z,101753.44
2023-05-05T20:45:41.151Z,101760.78
2023-05-05T20:48:10.051Z,101749.19
2023-05-05T20:50:39.906Z,101753.09
2023-05-05T20:53:08.505Z,101754.09
2023-05-05T20:55:35.499Z,101748.03
2023-05-05T20:58:02.242Z,101743.81
2023-05-05T21:00:28.800Z,101743.91
2023-05-05T21:02:56.773Z,101741.31
2023-05-05T21:05:23.905Z,101740.44
2023-05-05T21:07:51.011Z,101745.16
2023-05-05T21:10:17.483Z,101743.50
2023-05-05T21:12:44.053Z,101745.56
2023-05-05T21:15:11.343Z,101739.50
2023-05-05T21:17:38.359Z,101744.22
2023-05-05T21:20:05.262Z,101739.03
2023-05-05T21:22:31.854Z,101737.56
2023-05-05T21:25:11.024Z,101742.19
2023-05-05T21:27:37.587Z,101745.88
2023-05-05T21:30:04.482Z,101743.28
2023-05-05T21:32:31.414Z,101749.41
2023-05-05T21:34:58.045Z,101746.81
2023-05-05T21:37:24.509Z,101745.28
2023-05-05T21:39:50.990Z,101744.72
2023-05-05T21:42:17.467Z,101742.28
2023-05-05T21:44:43.886Z,101748.09
2023-05-05T21:47:10.308Z,101748.28
2023-05-05T21:49:36.842Z,101747.69
2023-05-05T21:52:03.342Z,101744.31
2023-05-05T21:54:30.087Z,101742.66
2023-05-05T21:56:56.539Z,101737.66
2023-05-05T21:59:23.052Z,101738.78
2023-05-05T22:01:49.596Z,101739.00
2023-05-05T22:04:16.118Z,101735.59
2023-05-05T22:06:42.549Z,101734.84
2023-05-05T22:09:09.009Z,101737.63
2023-05-05T22:11:35.611Z,101742.38
2023-05-05T22:14:02.164Z,101736.97
2023-05-05T22:16:28.954Z,101731.72
2023-05-05T22:18:55.449Z,101734.53
2023-05-05T22:21:22.091Z,101738.19
2023-05-05T22:23:48.611Z,101746.41
2023-05-05T22:26:15.244Z,101750.91
2023-05-05T22:28:42.846Z,101748.03
2023-05-05T22:31:09.329Z,101744.19
2023-05-05T22:33:36.165Z,101734.28
2023-05-05T22:36:02.657Z,101735.22
2023-05-05T22:38:29.430Z,101734.16
2023-05-05T22:40:55.989Z,101735.91
2023-05-05T22:43:22.533Z,101739.38
2023-05-05T22:45:49.125Z,101738.41
2023-05-05T22:48:15.572Z,101741.78
2023-05-05T22:50:42.152Z,101735.16
2023-05-05T22:53:08.631Z,101736.50
2023-05-05T22:55:35.207Z,101731.69
2023-05-05T22:58:01.693Z,101743.16
2023-05-05T23:00:28.289Z,101734.09
2023-05-05T23:02:55.108Z,101731.19
2023-05-05T23:05:22.891Z,101730.06
2023-05-05T23:07:49.405Z,101731.69
2023-05-05T23:10:16.330Z,101727.72
2023-05-05T23:12:42.820Z,101723.84
2023-05-05T23:15:09.966Z,101732.72
2023-05-05T23:17:36.605Z,101723.09
2023-05-05T23:20:04.227Z,101731.22
2023-05-05T23:22:30.758Z,101731.09
2023-05-05T23:24:57.257Z,101734.59
2023-05-05T23:27:23.938Z,101727.44
2023-05-05T23:29:51.682Z,101734.75
2023-05-05T23:32:18.213Z,101723.38
2023-05-05T23:34:44.699Z,101723.56
2023-05-05T23:37:13.054Z,101718.47
2023-05-05T23:39:39.738Z,101724.06
2023-05-05T23:42:06.196Z,101725.88
2023-05-05T23:44:32.670Z,101718.66
2023-05-05T23:46:59.098Z,101723.88
2023-05-05T23:49:26.390Z,101717.50
2023-05-05T23:51:52.994Z,101723.66
2023-05-05T23:54:19.419Z,101728.97
2023-05-05T23:56:47.684Z,101715.47
2023-05-05T23:59:14.183Z,101717.50
